Time;durP1;ratioP1;P1;durP2;ratioP2;P2;SDS_P1;SDS_P2;PMS_P1;PMS_P2;Temp;Humidity;BMP_temperature;BMP_pressure;BME280_temperature;BME280_humidity;BME280_pressure;Samples;Min_cycle;Max_cycle;Signal;HPM_P1;HPM_P2
2021/12/14 00:26:28;;;;;;;18.83;9.52;;;;;;;;;;4959412;29;20114;-87
2021/12/14 00:28:53;;;;;;;17.63;9.90;;;;;;;;;;4968773;28;20349;-89
2021/12/14 00:31:20;;;;;;;18.85;9.82;;;;;;;;;;4956279;28;20023;-87
2021/12/14 00:33:51;;;;;;;15.95;8.45;;;;;;;;;;4950049;28;20195;-88
2021/12/14 00:36:18;;;;;;;14.45;8.38;;;;;;;;;;4979667;28;21011;-89
2021/12/14 00:39:09;;;;;;;15.40;8.38;;;;;;;;;;4986078;28;20035;-88
2021/12/14 00:41:38;;;;;;;18.23;8.55;;;;;;;;;;4958135;28;20026;-89
2021/12/14 00:44:05;;;;;;;12.38;6.93;;;;;;;;;;4968814;28;20180;-88
2021/12/14 00:46:38;;;;;;;13.15;7.22;;;;;;;;;;4989349;28;20022;-88
2021/12/14 00:49:07;;;;;;;15.70;7.32;;;;;;;;;;4985397;28;20373;-88
2021/12/14 00:51:33;;;;;;;12.57;6.85;;;;;;;;;;4986586;28;20028;-87
2021/12/14 00:54:01;;;;;;;13.40;7.00;;;;;;;;;;4983788;28;20602;-89
2021/12/14 00:56:27;;;;;;;14.93;7.05;;;;;;;;;;4970058;28;20746;-88
2021/12/14 00:58:52;;;;;;;16.30;7.97;;;;;;;;;;4966477;28;20141;-90
2021/12/14 01:01:23;;;;;;;16.15;8.90;;;;;;;;;;4982868;28;20122;-88
2021/12/14 01:03:54;;;;;;;19.83;10.07;;;;;;;;;;4957346;28;20031;-90
2021/12/14 01:06:23;;;;;;;20.02;10.13;;;;;;;;;;4982787;28;20085;-89
2021/12/14 01:08:50;;;;;;;21.48;10.50;;;;;;;;;;5005188;28;20014;-89
2021/12/14 01:11:30;;;;;;;18.90;9.60;;;;;;;;;;4983978;28;20022;-89
2021/12/14 01:14:04;;;;;;;14.93;8.50;;;;;;;;;;4996712;28;20026;-88
2021/12/14 01:17:12;;;;;;;19.63;10.02;;;;;;;;;;4962560;28;20208;-89
2021/12/14 01:19:54;;;;;;;15.00;9.27;;;;;;;;;;4977855;28;20022;-88
2021/12/14 01:25:02;;;;;;;18.42;9.38;;;;;;;;;;4969709;28;20053;-88
2021/12/14 01:27:35;;;;;;;16.75;8.88;;;;;;;;;;4961282;28;20436;-89
2021/12/14 01:30:12;;;;;;;17.92;10.02;;;;;;;;;;4960067;28;20105;-88
2021/12/14 01:32:43;;;;;;;17.88;9.90;;;;;;;;;;4979297;28;20126;-88
2021/12/14 01:35:13;;;;;;;23.10;9.43;;;;;;;;;;4958468;28;20112;-89
2021/12/14 01:37:58;;;;;;;17.40;9.30;;;;;;;;;;4977353;28;20039;-89
2021/12/14 01:43:09;;;;;;;16.02;9.52;;;;;;;;;;4975810;28;20042;-89
2021/12/14 01:45:35;;;;;;;19.25;9.43;;;;;;;;;;4958849;28;20022;-88
2021/12/14 01:48:00;;;;;;;20.05;10.18;;;;;;;;;;4975398;28;20086;-87
2021/12/14 01:50:33;;;;;;;16.63;9.02;;;;;;;;;;4958131;28;20057;-88
2021/12/14 01:52:59;;;;;;;16.48;8.95;;;;;;;;;;4975819;28;20027;-88
2021/12/14 01:55:34;;;;;;;18.60;10.63;;;;;;;;;;4958532;28;20061;-89
2021/12/14 01:58:03;;;;;;;16.35;9.20;;;;;;;;;;4961544;28;20017;-88
2021/12/14 02:00:37;;;;;;;18.70;9.52;;;;;;;;;;4983918;28;20433;-88
2021/12/14 02:03:06;;;;;;;20.45;10.13;;;;;;;;;;4975736;28;20086;-88
2021/12/14 02:05:40;;;;;;;20.15;9.85;;;;;;;;;;4976339;28;20026;-88
2021/12/14 02:08:20;;;;;;;20.30;10.30;;;;;;;;;;4976499;28;20027;-88
2021/12/14 02:10:47;;;;;;;26.38;10.65;;;;;;;;;;4987728;28;20352;-88
2021/12/14 02:13:13;;;;;;;26.55;10.93;;;;;;;;;;4975908;28;20089;-89
2021/12/14 02:15:42;;;;;;;22.10;10.57;;;;;;;;;;4973102;28;20106;-88
2021/12/14 02:18:14;;;;;;;21.23;10.45;;;;;;;;;;4966858;28;20097;-89
2021/12/14 02:20:48;;;;;;;24.23;10.52;;;;;;;;;;4974952;28;20015;-89
2021/12/14 02:23:13;;;;;;;22.63;10.20;;;;;;;;;;4981307;28;20037;-88
2021/12/14 02:25:39;;;;;;;18.90;10.25;;;;;;;;;;4975665;28;20022;-89
2021/12/14 02:28:08;;;;;;;21.52;10.18;;;;;;;;;;4962285;28;20050;-88
2021/12/14 02:30:34;;;;;;;21.67;9.93;;;;;;;;;;4958462;28;20050;-88
2021/12/14 02:33:10;;;;;;;24.67;10.70;;;;;;;;;;4958465;28;20046;-88
2021/12/14 02:35:36;;;;;;;20.25;10.75;;;;;;;;;;4975890;28;20019;-88
2021/12/14 02:38:07;;;;;;;14.35;8.23;;;;;;;;;;4950766;28;20030;-88
2021/12/14 02:41:01;;;;;;;13.73;7.65;;;;;;;;;;4958734;28;20077;-89
2021/12/14 02:43:39;;;;;;;13.52;8.00;;;;;;;;;;4969315;28;20050;-88
2021/12/14 02:46:23;;;;;;;14.27;7.63;;;;;;;;;;4975969;28;20389;-88
2021/12/14 02:48:53;;;;;;;14.00;7.80;;;;;;;;;;4976267;28;20043;-89
2021/12/14 02:51:28;;;;;;;19.02;8.27;;;;;;;;;;4959188;28;20444;-89
2021/12/14 02:54:03;;;;;;;17.63;7.40;;;;;;;;;;4975671;28;20031;-89
2021/12/14 02:56:31;;;;;;;18.25;8.27;;;;;;;;;;4976768;28;20432;-89
2021/12/14 02:59:02;;;;;;;19.40;8.52;;;;;;;;;;4959028;28;20113;-88
2021/12/14 03:01:28;;;;;;;17.73;7.65;;;;;;;;;;4959155;28;20097;-90
2021/12/14 03:03:59;;;;;;;16.65;8.30;;;;;;;;;;4958087;28;20118;-89
2021/12/14 03:06:27;;;;;;;17.70;8.25;;;;;;;;;;4959139;28;20026;-93
2021/12/14 03:09:17;;;;;;;14.27;7.80;;;;;;;;;;4974497;28;20034;-89
2021/12/14 03:11:43;;;;;;;19.08;7.80;;;;;;;;;;4974933;28;20023;-89
2021/12/14 03:14:09;;;;;;;20.92;8.10;;;;;;;;;;4957006;28;20049;-88
2021/12/14 03:16:38;;;;;;;15.45;7.30;;;;;;;;;;4974713;28;20033;-89
2021/12/14 03:19:06;;;;;;;18.38;7.95;;;;;;;;;;4974750;28;20105;-88
2021/12/14 03:21:37;;;;;;;14.95;7.72;;;;;;;;;;4974533;28;20031;-88
2021/12/14 03:24:10;;;;;;;14.10;8.30;;;;;;;;;;4974851;28;20043;-89
2021/12/14 03:26:39;;;;;;;18.63;8.63;;;;;;;;;;4976050;28;20034;-89
2021/12/14 03:29:09;;;;;;;18.25;7.90;;;;;;;;;;4979175;28;20027;-89
2021/12/14 03:31:39;;;;;;;14.60;7.68;;;;;;;;;;4978737;28;20083;-89
2021/12/14 03:34:04;;;;;;;17.83;8.20;;;;;;;;;;4962110;28;20026;-89
2021/12/14 03:36:34;;;;;;;15.77;7.63;;;;;;;;;;4961973;28;20034;-88
2021/12/14 03:39:09;;;;;;;16.15;7.95;;;;;;;;;;4979159;28;20078;-88
2021/12/14 03:41:44;;;;;;;16.65;8.23;;;;;;;;;;4968694;28;20136;-88
2021/12/14 03:44:25;;;;;;;21.15;9.05;;;;;;;;;;4962711;28;20121;-89
2021/12/14 03:47:08;;;;;;;18.15;8.60;;;;;;;;;;4961746;28;20496;-89
2021/12/14 03:49:45;;;;;;;16.85;7.20;;;;;;;;;;4962229;28;20035;-89
2021/12/14 03:52:16;;;;;;;15.68;7.25;;;;;;;;;;4963384;28;20033;-88
2021/12/14 03:54:42;;;;;;;20.70;9.15;;;;;;;;;;4963219;28;20124;-90
2021/12/14 03:57:09;;;;;;;26.25;8.23;;;;;;;;;;4982389;28;20027;-89
2021/12/14 03:59:36;;;;;;;24.70;8.27;;;;;;;;;;4981843;28;20077;-89
2021/12/14 04:02:04;;;;;;;17.40;7.43;;;;;;;;;;4988141;28;20082;-88
2021/12/14 04:04:36;;;;;;;18.38;7.82;;;;;;;;;;4963371;28;20118;-88
2021/12/14 04:07:06;;;;;;;17.30;7.63;;;;;;;;;;4962384;28;20030;-89
2021/12/14 04:09:35;;;;;;;18.98;8.18;;;;;;;;;;4979696;28;20026;-89
2021/12/14 04:12:01;;;;;;;18.52;7.32;;;;;;;;;;4995858;28;20026;-87
2021/12/14 04:14:29;;;;;;;18.27;6.90;;;;;;;;;;4990210;28;20046;-89
2021/12/14 04:16:56;;;;;;;17.17;7.55;;;;;;;;;;4980222;28;20033;-90
2021/12/14 04:19:25;;;;;;;18.10;7.75;;;;;;;;;;4963518;28;20022;-88
2021/12/14 04:21:52;;;;;;;18.08;7.57;;;;;;;;;;4978998;28;20018;-88
2021/12/14 04:24:24;;;;;;;15.25;7.45;;;;;;;;;;4967821;28;20019;-87
2021/12/14 04:26:52;;;;;;;16.77;7.72;;;;;;;;;;4963965;28;20030;-89
2021/12/14 04:29:18;;;;;;;15.80;6.72;;;;;;;;;;4961244;28;20033;-90
2021/12/14 04:31:45;;;;;;;18.33;7.35;;;;;;;;;;4960667;28;20030;-90
2021/12/14 04:34:11;;;;;;;14.75;6.55;;;;;;;;;;4960944;28;20046;-90
2021/12/14 04:36:39;;;;;;;14.07;6.15;;;;;;;;;;4951681;28;20456;-89
2021/12/14 04:53:16;;;;;;;11.25;6.00;;;;;;;;;;4986066;28;20037;-89
2021/12/14 04:55:45;;;;;;;11.45;5.65;;;;;;;;;;4977764;28;20389;-89
2021/12/14 04:58:12;;;;;;;11.57;5.93;;;;;;;;;;4960842;28;20431;-90
2021/12/14 05:00:44;;;;;;;12.43;5.38;;;;;;;;;;4962839;28;20078;-91
2021/12/14 05:03:26;;;;;;;12.88;6.25;;;;;;;;;;4959558;28;20375;-89
2021/12/14 05:06:09;;;;;;;11.23;6.18;;;;;;;;;;4959756;28;20035;-90
2021/12/14 05:11:05;;;;;;;12.63;6.10;;;;;;;;;;4976705;28;20022;-87
2021/12/14 05:13:34;;;;;;;13.30;6.38;;;;;;;;;;4959323;28;20473;-88
2021/12/14 05:16:00;;;;;;;13.63;6.00;;;;;;;;;;4977534;28;20382;-87
2021/12/14 05:18:26;;;;;;;13.73;5.60;;;;;;;;;;4960614;28;20023;-87
2021/12/14 05:20:52;;;;;;;11.52;6.10;;;;;;;;;;4960559;28;20027;-89
2021/12/14 05:23:30;;;;;;;12.57;6.03;;;;;;;;;;4978176;28;20050;-89
2021/12/14 05:25:58;;;;;;;12.48;6.78;;;;;;;;;;4978085;28;20027;-89
2021/12/14 05:28:24;;;;;;;13.55;6.65;;;;;;;;;;4967227;28;20066;-89
2021/12/14 05:30:54;;;;;;;14.48;7.00;;;;;;;;;;4979833;28;20109;-88
2021/12/14 05:33:24;;;;;;;14.00;6.47;;;;;;;;;;4976832;28;20073;-88
2021/12/14 05:35:52;;;;;;;14.27;6.28;;;;;;;;;;4958212;28;20026;-88
2021/12/14 05:38:28;;;;;;;11.55;6.75;;;;;;;;;;4958405;28;20034;-88
2021/12/14 05:43:23;;;;;;;10.13;6.03;;;;;;;;;;4979989;28;20054;-87
2021/12/14 05:45:58;;;;;;;11.90;5.85;;;;;;;;;;4958116;28;20023;-87
2021/12/14 05:48:33;;;;;;;11.57;7.10;;;;;;;;;;4976010;28;20109;-88
2021/12/14 05:51:23;;;;;;;10.82;5.93;;;;;;;;;;4974799;28;20114;-89
2021/12/14 05:53:48;;;;;;;12.20;6.18;;;;;;;;;;4960755;28;20414;-88
2021/12/14 05:56:21;;;;;;;11.75;6.35;;;;;;;;;;4977814;28;20464;-88
2021/12/14 05:58:48;;;;;;;11.05;5.10;;;;;;;;;;4957725;28;20023;-89
2021/12/14 06:01:18;;;;;;;9.07;5.15;;;;;;;;;;4957649;28;20031;-88
2021/12/14 06:03:52;;;;;;;11.43;5.70;;;;;;;;;;4954280;28;20179;-88
2021/12/14 06:06:32;;;;;;;9.57;5.13;;;;;;;;;;4940783;29;20023;-88
2021/12/14 06:09:11;;;;;;;9.77;5.75;;;;;;;;;;4958586;28;20452;-90
2021/12/14 06:11:43;;;;;;;11.20;6.10;;;;;;;;;;4958807;28;20027;-88
2021/12/14 06:14:19;;;;;;;9.97;5.33;;;;;;;;;;4958040;28;20031;-89
2021/12/14 06:16:47;;;;;;;10.73;6.03;;;;;;;;;;4958049;28;20272;-88
2021/12/14 06:19:47;;;;;;;8.85;5.25;;;;;;;;;;4975595;28;20038;-88
2021/12/14 06:25:32;;;;;;;9.70;5.60;;;;;;;;;;4975916;28;20102;-89
2021/12/14 06:28:01;;;;;;;8.87;5.30;;;;;;;;;;4957935;28;20034;-89
2021/12/14 06:30:41;;;;;;;13.00;5.38;;;;;;;;;;4958407;28;20014;-89
2021/12/14 06:33:13;;;;;;;10.00;5.85;;;;;;;;;;4972368;28;20031;-88
2021/12/14 06:35:46;;;;;;;;;;;;;;;;;;4959406;28;20056;-88
2021/12/14 06:38:26;;;;;;;;;;;;;;;;;;4976567;28;20013;-88
2021/12/14 06:41:28;;;;;;;9.57;5.15;;;;;;;;;;4964361;28;19918;-90
2021/12/14 06:47:10;;;;;;;;;;;;;;;;;;;;;
2021/12/14 06:49:39;;;;;;;8.13;4.63;;;;;;;;;;4961203;28;20488;-88
2021/12/14 06:52:06;;;;;;;7.93;4.70;;;;;;;;;;4956633;28;20094;-90
2021/12/14 06:54:32;;;;;;;8.00;4.65;;;;;;;;;;4957331;28;20109;-88
2021/12/14 06:57:00;;;;;;;7.75;4.70;;;;;;;;;;4975430;28;20049;-88
2021/12/14 06:59:27;;;;;;;7.93;5.22;;;;;;;;;;4958109;28;20023;-88
2021/12/14 07:01:57;;;;;;;6.50;4.38;;;;;;;;;;4961903;28;20023;-88
2021/12/14 07:04:30;;;;;;;8.35;5.10;;;;;;;;;;4978816;28;20015;-88
2021/12/14 07:07:03;;;;;;;7.53;4.60;;;;;;;;;;4961225;28;20023;-88
2021/12/14 07:09:43;;;;;;;9.30;5.15;;;;;;;;;;4961156;28;20027;-91
2021/12/14 07:12:32;;;;;;;10.98;4.75;;;;;;;;;;4961755;28;20617;-92
2021/12/14 07:15:03;;;;;;;7.60;4.63;;;;;;;;;;4962161;28;20038;-91
2021/12/14 07:17:43;;;;;;;16.88;6.55;;;;;;;;;;4978875;28;20051;-89
2021/12/14 07:20:18;;;;;;;11.40;6.18;;;;;;;;;;4979667;28;20495;-88
2021/12/14 07:22:50;;;;;;;18.52;7.43;;;;;;;;;;4964515;28;20030;-88
2021/12/14 07:25:20;;;;;;;;;;;;;;;;;;4983043;28;20034;-88
2021/12/14 07:27:47;;;;;;;16.73;7.00;;;;;;;;;;4989659;28;19940;-88
2021/12/14 07:30:20;;;;;;;15.85;6.70;;;;;;;;;;4969316;28;20041;-87
2021/12/14 07:32:59;;;;;;;16.45;7.30;;;;;;;;;;4991268;28;20038;-86
2021/12/14 07:35:33;;;;;;;19.48;7.35;;;;;;;;;;4970083;28;20062;-87
2021/12/14 07:38:24;;;;;;;14.00;6.72;;;;;;;;;;4994894;28;20027;-85
2021/12/14 07:40:55;;;;;;;11.50;5.78;;;;;;;;;;4980089;28;20022;-87
2021/12/14 07:43:32;;;;;;;16.60;8.27;;;;;;;;;;4995875;28;20078;-86
2021/12/14 07:45:58;;;;;;;15.05;5.90;;;;;;;;;;4982827;28;20034;-86
2021/12/14 07:48:41;;;;;;;12.75;7.05;;;;;;;;;;4979465;28;20097;-86
2021/12/14 07:51:09;;;;;;;10.55;5.85;;;;;;;;;;4983572;28;20387;-86
2021/12/14 07:53:41;;;;;;;13.20;6.50;;;;;;;;;;4982656;28;20696;-87
2021/12/14 07:56:20;;;;;;;13.30;6.55;;;;;;;;;;4982494;28;20471;-86
2021/12/14 07:58:48;;;;;;;17.33;7.30;;;;;;;;;;4985125;28;20029;-86
2021/12/14 08:01:14;;;;;;;14.38;6.15;;;;;;;;;;4971623;28;20022;-86
2021/12/14 08:03:39;;;;;;;13.57;6.72;;;;;;;;;;4984808;28;20101;-87
2021/12/14 08:06:11;;;;;;;12.50;6.82;;;;;;;;;;4984567;28;20054;-86
2021/12/14 08:14:07;;;;;;;13.57;6.93;;;;;;;;;;4992115;28;20042;-87
2021/12/14 08:16:50;;;;;;;18.02;7.32;;;;;;;;;;4996634;28;20078;-86
2021/12/14 08:19:24;;;;;;;12.25;6.32;;;;;;;;;;4968069;28;20086;-85
2021/12/14 08:21:49;;;;;;;11.57;6.75;;;;;;;;;;4967772;28;20026;-86
2021/12/14 08:24:16;;;;;;;12.00;6.18;;;;;;;;;;4966381;28;20053;-87
2021/12/14 08:26:49;;;;;;;11.25;6.13;;;;;;;;;;4967363;28;20015;-87
2021/12/14 08:29:29;;;;;;;12.23;6.90;;;;;;;;;;4966873;28;20457;-87
2021/12/14 08:32:05;;;;;;;10.68;6.18;;;;;;;;;;4981303;28;20033;-88
2021/12/14 08:34:36;;;;;;;10.93;5.90;;;;;;;;;;4961611;28;20094;-87
2021/12/14 08:37:14;;;;;;;9.80;5.88;;;;;;;;;;4962105;28;20037;-88
2021/12/14 08:39:49;;;;;;;12.45;6.13;;;;;;;;;;4955959;28;20034;-87
2021/12/14 08:42:24;;;;;;;12.35;5.95;;;;;;;;;;4952925;28;20042;-87
2021/12/14 08:44:54;;;;;;;13.80;6.78;;;;;;;;;;4978913;28;20030;-88
2021/12/14 08:47:41;;;;;;;12.55;6.63;;;;;;;;;;4960942;28;20042;-87
2021/12/14 08:50:13;;;;;;;10.73;6.47;;;;;;;;;;4977202;28;20433;-88
2021/12/14 08:52:42;;;;;;;11.00;5.85;;;;;;;;;;4960485;28;20027;-89
2021/12/14 08:55:28;;;;;;;;;;;;;;;;;;;;;
2021/12/14 08:58:10;;;;;;;12.13;6.95;;;;;;;;;;4963164;28;20144;-86
2021/12/14 09:00:45;;;;;;;12.90;6.63;;;;;;;;;;4960613;28;20366;-88
2021/12/14 09:03:16;;;;;;;12.48;6.82;;;;;;;;;;4976993;28;20053;-89
2021/12/14 09:05:48;;;;;;;10.85;6.03;;;;;;;;;;4971251;28;20105;-85
2021/12/14 09:08:18;;;;;;;;;;;;;;;;;;4961943;28;20050;-87
2021/12/14 09:10:46;;;;;;;11.55;6.15;;;;;;;;;;4977264;28;19930;-87
2021/12/14 09:13:13;;;;;;;15.90;7.45;;;;;;;;;;4958653;28;20023;-87
2021/12/14 09:16:08;;;;;;;14.20;7.00;;;;;;;;;;4958485;28;20029;-87
2021/12/14 09:18:39;;;;;;;11.70;6.82;;;;;;;;;;4956017;28;20604;-86
2021/12/14 09:21:09;;;;;;;14.23;6.90;;;;;;;;;;4975052;28;20429;-86
2021/12/14 09:23:44;;;;;;;13.80;6.75;;;;;;;;;;4958545;28;20030;-87
2021/12/14 09:26:17;;;;;;;15.63;7.63;;;;;;;;;;4976723;28;20051;-88
2021/12/14 09:28:42;;;;;;;16.20;7.47;;;;;;;;;;4959205;28;20018;-87
2021/12/14 09:31:14;;;;;;;12.50;6.95;;;;;;;;;;4959471;28;20038;-87
2021/12/14 09:33:41;;;;;;;13.48;7.47;;;;;;;;;;4977081;28;20023;-89
2021/12/14 09:36:13;;;;;;;11.85;7.50;;;;;;;;;;4958741;28;20027;-88
2021/12/14 09:38:44;;;;;;;14.18;7.43;;;;;;;;;;4977952;28;20043;-88
2021/12/14 09:41:13;;;;;;;14.32;7.35;;;;;;;;;;4957682;28;20031;-88
2021/12/14 09:43:40;;;;;;;15.55;6.70;;;;;;;;;;4975267;28;20127;-88
2021/12/14 09:46:08;;;;;;;13.90;7.05;;;;;;;;;;4958004;28;20058;-88
2021/12/14 09:48:41;;;;;;;14.73;7.85;;;;;;;;;;4958476;28;20031;-89
2021/12/14 09:51:11;;;;;;;11.25;6.00;;;;;;;;;;4958211;28;20026;-88
2021/12/14 09:53:41;;;;;;;12.20;7.38;;;;;;;;;;4957935;28;20042;-89
2021/12/14 09:56:08;;;;;;;13.73;7.53;;;;;;;;;;4960744;28;20029;-88
2021/12/14 09:58:38;;;;;;;14.52;8.20;;;;;;;;;;4958048;28;20026;-89
2021/12/14 10:01:23;;;;;;;15.93;7.88;;;;;;;;;;4956838;28;20019;-88
2021/12/14 10:03:53;;;;;;;13.68;7.47;;;;;;;;;;4972134;28;20046;-88
2021/12/14 10:06:24;;;;;;;13.70;7.40;;;;;;;;;;4975124;28;20026;-88
2021/12/14 10:08:58;;;;;;;13.95;7.40;;;;;;;;;;4963453;28;20029;-88
2021/12/14 10:12:41;;;;;;;15.32;7.05;;;;;;;;;;4975125;28;20089;-89
2021/12/14 10:15:32;;;;;;;14.85;6.57;;;;;;;;;;4938949;28;20039;-88
2021/12/14 10:18:11;;;;;;;11.35;6.43;;;;;;;;;;4968623;28;20047;-89
2021/12/14 10:21:06;;;;;;;10.93;6.82;;;;;;;;;;4979204;28;20050;-89
2021/12/14 10:23:33;;;;;;;10.55;5.47;;;;;;;;;;4987253;28;20054;-89
2021/12/14 10:26:01;;;;;;;7.65;4.88;;;;;;;;;;4963309;28;20050;-87
2021/12/14 10:28:38;;;;;;;9.02;5.72;;;;;;;;;;4968282;28;20042;-87
2021/12/14 10:31:11;;;;;;;11.10;5.57;;;;;;;;;;4957497;28;20130;-88
2021/12/14 10:33:57;;;;;;;11.15;6.05;;;;;;;;;;4955989;28;20038;-88
2021/12/14 10:36:38;;;;;;;10.43;5.78;;;;;;;;;;4958511;28;20046;-88
2021/12/14 10:44:49;;;;;;;7.03;4.35;;;;;;;;;;4969852;28;20045;-89
2021/12/14 10:47:21;;;;;;;6.10;3.85;;;;;;;;;;4966282;28;20026;-89
2021/12/14 10:49:48;;;;;;;7.25;4.38;;;;;;;;;;4957948;28;20109;-89
2021/12/14 10:52:18;;;;;;;11.35;4.80;;;;;;;;;;4957808;28;20031;-87
2021/12/14 10:54:52;;;;;;;8.45;5.13;;;;;;;;;;4975194;28;20110;-88
2021/12/14 10:57:25;;;;;;;7.63;5.22;;;;;;;;;;4957779;28;20038;-87
2021/12/14 10:59:54;;;;;;;7.07;4.88;;;;;;;;;;4952725;28;20035;-90
2021/12/14 11:02:22;;;;;;;8.30;4.47;;;;;;;;;;4957734;28;20768;-89
2021/12/14 11:05:01;;;;;;;10.00;6.15;;;;;;;;;;4965799;28;20030;-88
2021/12/14 11:07:38;;;;;;;11.70;6.63;;;;;;;;;;4957618;28;20161;-87
2021/12/14 11:13:55;;;;;;;10.20;6.63;;;;;;;;;;4957347;28;20031;-88
2021/12/14 11:19:32;;;;;;;11.77;7.82;;;;;;;;;;4968930;28;20029;-88
2021/12/14 11:22:16;;;;;;;11.13;6.40;;;;;;;;;;4957400;28;20019;-89
2021/12/14 11:24:46;;;;;;;11.45;6.30;;;;;;;;;;4957693;28;20086;-90
2021/12/14 11:30:41;;;;;;;9.68;6.82;;;;;;;;;;4986628;28;20049;-89
2021/12/14 11:33:45;;;;;;;11.52;7.18;;;;;;;;;;4960363;28;20484;-88
2021/12/14 11:36:16;;;;;;;10.73;6.25;;;;;;;;;;4959748;28;20058;-87
2021/12/14 11:38:44;;;;;;;9.73;5.95;;;;;;;;;;4980026;28;20019;-87
2021/12/14 11:41:43;;;;;;;8.75;5.65;;;;;;;;;;4961499;28;20022;-87
2021/12/14 11:48:11;;;;;;;7.93;5.55;;;;;;;;;;4981296;28;20128;-87
2021/12/14 11:51:28;;;;;;;8.70;5.38;;;;;;;;;;4939404;28;20039;-87
2021/12/14 11:54:07;;;;;;;8.70;5.97;;;;;;;;;;4982625;28;20022;-87
2021/12/14 11:56:36;;;;;;;8.40;5.93;;;;;;;;;;4965287;28;20055;-87
2021/12/14 11:59:06;;;;;;;7.30;4.93;;;;;;;;;;4983712;28;20493;-88
2021/12/14 12:01:39;;;;;;;6.32;4.22;;;;;;;;;;4979883;28;20057;-87
2021/12/14 12:04:13;;;;;;;11.15;5.85;;;;;;;;;;4984826;28;20034;-88
2021/12/14 12:15:19;;;;;;;8.57;5.55;;;;;;;;;;5369299;23;20070;-89
2021/12/14 12:18:00;;;;;;;10.35;5.50;;;;;;;;;;4998267;28;20074;-89
2021/12/14 12:20:48;;;;;;;12.63;6.32;;;;;;;;;;4999389;28;20070;-89
2021/12/14 12:23:21;;;;;;;9.85;6.10;;;;;;;;;;4964815;28;20039;-89
2021/12/14 12:25:51;;;;;;;8.18;5.18;;;;;;;;;;4958305;29;20034;-88
2021/12/14 12:28:26;;;;;;;11.98;6.10;;;;;;;;;;4978212;28;20019;-87
2021/12/14 12:31:06;;;;;;;12.20;6.80;;;;;;;;;;4950218;29;20035;-87
2021/12/14 12:33:36;;;;;;;12.73;7.30;;;;;;;;;;4948000;29;20459;-87
2021/12/14 12:36:08;;;;;;;14.70;7.25;;;;;;;;;;4949146;29;20027;-89
2021/12/14 12:38:46;;;;;;;11.60;6.85;;;;;;;;;;4951607;29;20022;-88
2021/12/14 12:41:27;;;;;;;13.57;7.55;;;;;;;;;;4953104;29;20027;-88
2021/12/14 12:44:01;;;;;;;16.13;8.38;;;;;;;;;;4958516;28;20034;-87
2021/12/14 12:47:32;;;;;;;16.48;7.90;;;;;;;;;;4952857;28;20090;-88
2021/12/14 12:50:08;;;;;;;15.80;8.25;;;;;;;;;;4887927;29;20025;-87
2021/12/14 12:52:37;;;;;;;14.80;8.25;;;;;;;;;;4900928;29;20032;-87
2021/12/14 12:55:16;;;;;;;20.40;10.15;;;;;;;;;;4929336;29;20042;-88
2021/12/14 12:57:57;;;;;;;17.85;9.25;;;;;;;;;;4957596;28;20033;-87
2021/12/14 13:00:51;;;;;;;17.67;8.68;;;;;;;;;;4947695;28;20094;-89
2021/12/14 13:03:34;;;;;;;;;;;;;;;;;;;;;
2021/12/14 13:06:41;;;;;;;22.60;8.88;;;;;;;;;;4967885;28;20087;-89
2021/12/14 13:16:28;;;;;;;15.85;8.10;;;;;;;;;;4869992;29;20064;-88
2021/12/14 13:19:52;;;;;;;18.50;8.93;;;;;;;;;;4971990;28;20027;-89
2021/12/14 13:47:54;;;;;;;18.35;9.35;;;;;;;;;;4957460;29;20077;-84
2021/12/14 13:50:29;;;;;;;24.90;11.60;;;;;;;;;;4941432;29;20024;-84
2021/12/14 13:52:56;;;;;;;21.20;10.48;;;;;;;;;;4958636;29;20039;-84
2021/12/14 13:55:38;;;;;;;23.15;11.20;;;;;;;;;;4961187;28;20023;-85
2021/12/14 14:09:59;;;;;;;22.20;8.32;;;;;;;;;;5212567;23;20066;-83
2021/12/14 14:12:26;;;;;;;19.27;9.30;;;;;;;;;;4892173;29;20130;-84
2021/12/14 14:14:54;;;;;;;18.45;9.48;;;;;;;;;;4953778;28;20034;-85
2021/12/14 14:20:14;;;;;;;16.90;8.02;;;;;;;;;;4984922;28;20050;-88
2021/12/14 14:22:39;;;;;;;19.42;8.65;;;;;;;;;;4969396;28;20444;-90
2021/12/14 14:25:20;;;;;;;14.63;7.68;;;;;;;;;;4955950;28;20730;-89
2021/12/14 14:27:59;;;;;;;16.52;8.60;;;;;;;;;;4947160;28;20094;-89
2021/12/14 14:31:11;;;;;;;;;;;;;;;;;;;;;
2021/12/14 14:34:33;;;;;;;;;;;;;;;;;;;;;
2021/12/14 14:37:32;;;;;;;21.95;9.65;;;;;;;;;;4897300;29;20056;-89
2021/12/14 14:44:31;;;;;;;;;;;;;;;;;;;;;
2021/12/14 14:47:59;;;;;;;;;;;;;;;;;;;;;
2021/12/14 14:50:59;;;;;;;23.45;10.48;;;;;;;;;;4839455;29;20082;-90
2021/12/14 14:53:50;;;;;;;20.83;9.57;;;;;;;;;;4816438;29;20038;-90
2021/12/14 15:00:17;;;;;;;;;;;;;;;;;;;;;
2021/12/14 15:03:29;;;;;;;23.83;10.90;;;;;;;;;;4829694;29;20040;-90
2021/12/14 15:06:28;;;;;;;27.63;11.35;;;;;;;;;;4817109;29;20035;-90
2021/12/14 15:23:32;;;;;;;;;;;;;;;;;;;;;
2021/12/14 15:26:23;;;;;;;30.00;11.20;;;;;;;;;;4852522;29;20503;-90
2021/12/14 15:29:36;;;;;;;26.52;11.50;;;;;;;;;;4861356;29;20029;-89
2021/12/14 15:32:31;;;;;;;;;;;;;;;;;;4866280;29;20057;-89
2021/12/14 15:35:43;;;;;;;25.52;9.77;;;;;;;;;;4956469;28;19915;-90
2021/12/14 15:38:52;;;;;;;21.30;9.43;;;;;;;;;;4938494;29;20131;-90
2021/12/14 15:42:05;;;;;;;20.92;10.10;;;;;;;;;;4939136;29;20079;-89
2021/12/14 15:45:27;;;;;;;20.50;9.10;;;;;;;;;;4946608;28;20172;-89
2021/12/14 15:54:36;;;;;;;24.65;11.30;;;;;;;;;;5102549;23;20050;-84
2021/12/14 15:57:39;;;;;;;25.08;12.32;;;;;;;;;;4907997;28;20055;-86
2021/12/14 16:00:07;;;;;;;;;;;;;;;;;;4972513;28;20026;-83
2021/12/14 16:02:37;;;;;;;34.30;12.70;;;;;;;;;;4963438;28;19910;-85
2021/12/14 16:05:10;;;;;;;29.67;11.18;;;;;;;;;;4962912;28;20030;-84
2021/12/14 16:07:39;;;;;;;25.77;11.82;;;;;;;;;;4971537;28;20417;-84
2021/12/14 16:10:20;;;;;;;28.40;12.48;;;;;;;;;;4966303;28;20027;-85
2021/12/14 16:16:17;;;;;;;25.10;10.60;;;;;;;;;;4982063;28;20022;-85
2021/12/14 16:18:50;;;;;;;20.42;10.20;;;;;;;;;;4964239;28;20050;-85
2021/12/14 16:21:16;;;;;;;24.15;11.38;;;;;;;;;;4987417;28;20036;-85
2021/12/14 16:23:41;;;;;;;17.83;9.35;;;;;;;;;;4968189;28;20098;-84
2021/12/14 16:26:11;;;;;;;20.00;9.77;;;;;;;;;;4989497;28;20038;-85
2021/12/14 16:28:41;;;;;;;17.70;9.48;;;;;;;;;;4985695;28;20037;-85
2021/12/14 16:31:14;;;;;;;20.65;9.63;;;;;;;;;;4986786;28;20035;-85
2021/12/14 16:33:45;;;;;;;15.80;8.82;;;;;;;;;;4964581;28;20101;-85
2021/12/14 16:36:17;;;;;;;17.88;8.60;;;;;;;;;;4982889;28;20030;-84
2021/12/14 16:38:51;;;;;;;17.50;9.57;;;;;;;;;;4961498;28;20046;-85
2021/12/14 16:41:32;;;;;;;23.00;9.07;;;;;;;;;;4963009;28;20458;-85
2021/12/14 16:44:08;;;;;;;19.83;9.63;;;;;;;;;;4975607;28;20074;-85
2021/12/14 16:46:43;;;;;;;22.42;10.25;;;;;;;;;;4961056;28;20015;-85
2021/12/14 16:49:16;;;;;;;20.77;10.55;;;;;;;;;;4968675;28;20564;-85
2021/12/14 16:51:44;;;;;;;20.33;9.95;;;;;;;;;;4956246;28;20035;-86
2021/12/14 16:54:14;;;;;;;16.55;9.23;;;;;;;;;;4961336;28;20027;-85
2021/12/14 16:56:42;;;;;;;17.02;9.13;;;;;;;;;;4968934;28;20051;-85
2021/12/14 16:59:21;;;;;;;19.08;9.90;;;;;;;;;;4958965;28;20070;-85
2021/12/14 17:01:53;;;;;;;20.83;11.07;;;;;;;;;;4970286;28;20015;-85
2021/12/14 17:04:23;;;;;;;18.23;11.10;;;;;;;;;;4948878;28;20066;-85
2021/12/14 17:07:09;;;;;;;25.02;11.15;;;;;;;;;;4956113;28;20046;-80
2021/12/14 17:09:35;;;;;;;19.85;9.85;;;;;;;;;;4957533;28;20502;-84
2021/12/14 17:12:03;;;;;;;17.63;9.32;;;;;;;;;;4973776;28;20027;-85
2021/12/14 17:14:30;;;;;;;17.67;9.43;;;;;;;;;;4953324;28;20023;-85
2021/12/14 17:17:05;;;;;;;14.93;8.93;;;;;;;;;;4936649;29;20027;-85
2021/12/14 17:19:36;;;;;;;18.65;9.68;;;;;;;;;;4966587;28;20095;-87
2021/12/14 17:22:12;;;;;;;15.18;8.95;;;;;;;;;;4945028;29;20051;-87
2021/12/14 17:24:41;;;;;;;15.88;8.48;;;;;;;;;;4945657;28;20027;-85
2021/12/14 17:27:22;;;;;;;15.15;8.98;;;;;;;;;;4956895;28;20041;-85
2021/12/14 17:29:54;;;;;;;14.90;8.45;;;;;;;;;;4980811;28;20050;-85
2021/12/14 17:32:23;;;;;;;20.05;9.65;;;;;;;;;;4955258;28;20078;-84
2021/12/14 17:34:53;;;;;;;16.83;8.95;;;;;;;;;;4982206;28;20026;-86
2021/12/14 17:41:24;;;;;;;17.33;8.40;;;;;;;;;;4955341;28;20045;-85
2021/12/14 17:49:29;;;;;;;16.40;9.00;;;;;;;;;;5079169;23;20059;-84
2021/12/14 17:52:26;;;;;;;17.88;9.77;;;;;;;;;;4959449;28;20046;-84
2021/12/14 17:54:55;;;;;;;13.23;8.52;;;;;;;;;;4959132;28;20453;-84
2021/12/14 17:57:20;;;;;;;18.58;9.32;;;;;;;;;;4962350;28;20027;-87
2021/12/14 18:00:09;;;;;;;14.38;8.73;;;;;;;;;;4942720;28;20039;-83
2021/12/14 18:02:40;;;;;;;14.07;7.75;;;;;;;;;;4932619;29;20032;-85
2021/12/14 18:05:14;;;;;;;14.30;8.43;;;;;;;;;;4937011;29;20035;-86
2021/12/14 18:08:15;;;;;;;14.55;8.02;;;;;;;;;;4941988;29;20035;-87
2021/12/14 18:11:15;;;;;;;13.15;8.05;;;;;;;;;;4928079;28;20034;-86
2021/12/14 18:13:44;;;;;;;15.40;8.50;;;;;;;;;;4936433;29;20520;-86
2021/12/14 18:16:18;;;;;;;15.20;8.85;;;;;;;;;;4945188;29;20035;-85
2021/12/14 18:19:04;;;;;;;17.67;9.25;;;;;;;;;;4940606;29;20493;-86
2021/12/14 18:21:55;;;;;;;15.05;9.07;;;;;;;;;;4959981;29;20078;-85
2021/12/14 18:24:26;;;;;;;16.60;9.25;;;;;;;;;;4959345;28;20435;-85
2021/12/14 18:27:29;;;;;;;18.70;9.60;;;;;;;;;;4946643;28;20027;-86
2021/12/14 18:30:07;;;;;;;17.60;9.77;;;;;;;;;;4928360;29;20107;-86